ブダペスト の空港の天気 - METARとTAF

ブダペスト/フェリヘギ空港 ( LHBP / BUD ) - ハンガリー ブダペスト
飛行場実況気象(Metar)
観測時間12/08 10:30 CET (12/08 09:30 UTC)
風向・風速南東 1m/s
視程1700m
天気現象部分霧 もや
全天の4割程度の雲 雲底高度 120m
気温-3℃
湿度100%
気圧1011hPa
METARLHBP 080930Z 14002KT 1700 0700SE R31L/1100U R31R/0450N PRFG BR SCT004 M03/M03 Q1011 BECMG 3500 BR TEMPO BKN004
過去の天気等 Google飛行場航空写真 Wunderground天気予報

過去48時間のMETAR

飛行場予報(TAF)
発表時間: 12/08 09:20 CET (12/08 08:20 UTC)
予報対象時間: 8日10時 CET ~ 9日7時 CET
風向・風速不定 2m/s
視程4000m
天気現象もや
なし
8日10時 CET ~ 8日11時 CET に一時的に
視程800m
天気現象氷霧
全天の8割程度の雲 雲底高度 120m
8日11時 CET ~ 8日14時 CET に徐々に
風向・風速東南東 4m/s
視程10km以上
なし
8日20時 CET ~ 8日22時 CET に徐々に
風向・風速東 5m/s
9日3時 CET ~ 9日6時 CET に徐々に
風向・風速東北東 7m/s
TAF AMD LHBP 080820Z 0809/0906 VRB03KT 4000 BR NSC
TEMPO 0809/0810 0800 FZFG BKN004
BECMG 0810/0813 11007KT CAVOK
BECMG 0819/0821 08009KT
BECMG 0902/0905 07014KT